»·PEaware :: N522PM KSEA-KPDX

N522PM :: KSEA-KPDX

FLIGHT INFORMATION

Flight Status: Arrived
Operator: Privately registered:
United States
More flights under this callsign
Pilot: Bruce B. (6887)
Aircraft: Unknown
(E50P)
More flights by this aircraft type
Origin: KSEA Seattle-Tacoma Intl
United States
Destination: KPDX Portland Intl
United States
More flights between these airports :: More routes between these airports
Route: SEA7 SEA BUWZO KRATR2
File this flight plan on PilotEdge
Remarks:
Altitude:
(Current/Filed)
17,000ft
Speed:
(Current/Filed)
325kts
Departed: 13-Jan-20 04:13 PM
Arrived: 13-Jan-20 04:57 PM
Distance/Time
Traveled:
112nm/0:43
Distance/Time
To Go:
Arrived

Flight Plot

Page will automatically refresh every two minutes.

Flight plan parsing failed; only flown route is shown


Map Options




Map Legend


Flown Route
Filed Route
Departure Airport
Arrival Airport
Navaid (VOR, NDB)
Fix

Horizontal Profiles

Position Reports

Time Latitude Longitude Heading Altitude Ground
Speed
13-Jan-20 16:01 47.436203 -122.304717 113 438ft 0kts
13-Jan-20 16:02 47.436203 -122.304717 113 438ft 0kts
13-Jan-20 16:03 47.436203 -122.304717 113 438ft 0kts
13-Jan-20 16:04 47.436203 -122.304717 113 438ft 0kts
13-Jan-20 16:05 47.436203 -122.304717 113 438ft 0kts
13-Jan-20 16:06 47.436203 -122.304717 113 438ft 0kts
13-Jan-20 16:07 47.436203 -122.304717 113 438ft 0kts
13-Jan-20 16:08 47.436487 -122.305218 170 438ft 1kts
13-Jan-20 16:09 47.433400 -122.305550 180 438ft 20kts
13-Jan-20 16:10 47.431510 -122.306910 264 438ft 0kts
13-Jan-20 16:11 47.431518 -122.307882 294 438ft 8kts
13-Jan-20 16:12 47.450671 -122.307746 358 832ft 154kts
13-Jan-20 16:13 47.505417 -122.304360 2 2838ft 226kts
13-Jan-20 16:14 47.574359 -122.304495 359 4999ft 247kts
13-Jan-20 16:15 47.631126 -122.303412 355 7594ft 158kts
13-Jan-20 16:16 47.677531 -122.308729 352 9325ft 177kts
13-Jan-20 16:17 47.690810 -122.256383 152 10858ft 202kts
13-Jan-20 16:18 47.630849 -122.258514 190 12009ft 244kts
13-Jan-20 16:19 47.560663 -122.264825 188 13752ft 252kts
13-Jan-20 16:20 47.492150 -122.269845 189 15573ft 242kts
13-Jan-20 16:21 47.423545 -122.275033 190 16751ft 254kts
13-Jan-20 16:22 47.349654 -122.280620 189 16903ft 277kts
13-Jan-20 16:23 47.269407 -122.286479 189 16931ft 296kts
13-Jan-20 16:24 47.186650 -122.292522 189 16977ft 300kts
13-Jan-20 16:25 47.102449 -122.298680 189 16971ft 304kts
13-Jan-20 16:26 47.018256 -122.304786 189 16972ft 302kts
13-Jan-20 16:27 46.934253 -122.310440 186 16974ft 302kts
13-Jan-20 16:28 46.850638 -122.309692 186 16975ft 298kts
13-Jan-20 16:29 46.767886 -122.309587 186 16977ft 295kts
13-Jan-20 16:30 46.686060 -122.309588 186 16979ft 293kts
13-Jan-20 16:31 46.605342 -122.309530 186 16572ft 282kts
13-Jan-20 16:32 46.527436 -122.309585 186 15373ft 278kts
13-Jan-20 16:33 46.450424 -122.309598 186 14187ft 275kts
13-Jan-20 16:34 46.374699 -122.309568 186 13088ft 269kts
13-Jan-20 16:35 46.300746 -122.309571 186 12122ft 260kts
13-Jan-20 16:36 46.230961 -122.324225 207 11993ft 247kts
13-Jan-20 16:37 46.167084 -122.359852 206 11301ft 249kts
13-Jan-20 16:38 46.101743 -122.396193 205 10151ft 248kts
13-Jan-20 16:39 46.039485 -122.430037 204 9352ft 240kts
13-Jan-20 16:40 45.977155 -122.463510 204 7963ft 228kts
13-Jan-20 16:41 45.932140 -122.516086 236 6457ft 206kts
13-Jan-20 16:42 45.898998 -122.583221 236 4953ft 204kts
13-Jan-20 16:43 45.866746 -122.650151 236 3545ft 200kts
13-Jan-20 16:44 45.835436 -122.716355 236 3034ft 193kts
13-Jan-20 16:45 45.806695 -122.777126 236 2989ft 180kts
13-Jan-20 16:46 45.778762 -122.835508 236 2986ft 172kts
13-Jan-20 16:47 45.748098 -122.881777 171 2975ft 161kts
13-Jan-20 16:48 45.716081 -122.853594 146 2982ft 125kts
13-Jan-20 16:49 45.686883 -122.824365 136 2994ft 133kts
13-Jan-20 16:50 45.666135 -122.780933 119 2854ft 128kts
13-Jan-20 16:51 45.650058 -122.738183 118 2288ft 118kts
13-Jan-20 16:52 45.634719 -122.698064 119 1594ft 110kts
13-Jan-20 16:53 45.620664 -122.662082 118 1025ft 99kts
13-Jan-20 16:54 45.606945 -122.626718 118 541ft 100kts
13-Jan-20 16:55 45.593749 -122.592896 119 43ft 90kts
13-Jan-20 16:56 45.587930 -122.582705 192 35ft 11kts
13-Jan-20 16:57 45.586259 -122.581541 115 35ft 0kts
13-Jan-20 16:58 45.586258 -122.581537 115 35ft 0kts

Navigation Log

Ident Type
Flight plan parsing failed, navigation log unavailable